Aeroporto :
LOGIN :

Iscrizione | Disclaimer

   EN    FR    IT 

 










Sommario :    VFR   VFR Marginale   IFR   IFR Intensivo   IFR Molto Intensivo
Visibilità : 
Base nubi : 
>= 8 km
>= 3000ft
5 / 8 km
1000 / 3000 ft
1500m / 5 km
500 / 1000 ft
800 / 1500m
200 / 500 ft
< 800m
< 200 ft
Simboli :   Temporali  Nebbia  Neve Forte  Precipitazioni Forti  Vento > 20 kt
SIGMETs :   Varie  Temporali  Ghiacco  Turbolenza  Onda orograficha  Ceneri Vulcaniche







- Altitudine del aeroporto : 616 ft
- Codice IATA : PUF
- Carte del aeroporto


LFBP - Pau

ULTIMO METAR :
  • 271230Z AUTO 07008KT 030V100 CAVOK 31/23 Q1018 NOSIG

METARs OBSOLETI :
  • 271200Z AUTO 07006KT 010V120 CAVOK 31/22 Q1018 NOSIG
  • 271130Z AUTO 07005KT 010V120 CAVOK 30/22 Q1018 NOSIG
  • 271100Z AUTO 08006KT 040V140 CAVOK 29/22 Q1018 NOSIG
  • 271030Z AUTO 08005KT 020V120 CAVOK 28/22 Q1018 NOSIG
  • 271000Z AUTO 04005KT 360V110 CAVOK 28/22 Q1019 NOSIG
  • 270930Z AUTO 03005KT 340V080 CAVOK 27/21 Q1019 NOSIG

TAF TAF LFBP
Valido dal 27 a 12 ore il 28 a 12 ore UTC


271100Z 2712/2812 07009KT CAVOK
BECMG 2721/2723 27010KT
TEMPO 2723/2724 29015G25KT
TEMPO 2800/2808 3000 BR BKN010
PROB30
TEMPO 2800/2806 1200 OVC006
Nessun NOTAM noto per questo aeroporto.
2 SIGMETs conosciuti per la FIR Bordeaux (LFBB) :
 
Turbolenza severa
LFBB SIGMET 3 VALID 271300/271700 LFPW
LFBB BORDEAUX FIR/UIR SEV TURB FCST WI N4230 E00045 - N4300 W00145 - N4345 W00145 - N4300 E00100 - N4230 E00045 SFC/FL100 STNR NC=
Turbolenza severa
LFBB SIGMET 2 VALID 270900/271300 LFPW
LFBB BORDEAUX FIR/UIR SEV TURB FCST WI N4230 E00045 - N4300 W00145 - N4345 W00145 - N4300 E00100 - N4230 E00045 SFC/FL100 STNR NC=



MetMap, La meteo Aeronautica in un colpo d'occhio ! - Copyright ORBIFLY Dicembre 2007 - Disclaimer

ORBIFLY MET'MAP TEAM :

Programmazione e sviluppo : Alexandra Zaïnal
Concezione e sviluppo : Baudouin d'Aumeries
Co-Programmazione e sviluppo : Marc-Olivier Méhu
Supporto tecnico e logistico : Manuel Goepfert
Aiuto per la traduzione : Arnaldo La Scala

Contatto : metmap@orbifly.com




FONTI E CREDITI :

   NOAA